createdAt,value
2023-06-17T00:00:57.398Z,99.90
2023-06-17T00:03:24.486Z,99.90
2023-06-17T00:05:52.741Z,99.90
2023-06-17T00:08:20.634Z,99.90
2023-06-17T00:10:47.889Z,99.90
2023-06-17T00:13:20.334Z,99.90
2023-06-17T00:15:57.642Z,99.90
2023-06-17T00:18:25.951Z,99.90
2023-06-17T00:20:54.436Z,99.90
2023-06-17T00:23:22.398Z,99.90
2023-06-17T00:25:50.450Z,99.90
2023-06-17T00:28:17.890Z,99.90
2023-06-17T00:30:47.583Z,99.90
2023-06-17T00:33:15.968Z,99.90
2023-06-17T00:35:43.361Z,99.90
2023-06-17T00:38:10.495Z,99.90
2023-06-17T00:40:37.432Z,99.90
2023-06-17T00:43:04.682Z,99.90
2023-06-17T00:45:39.628Z,99.90
2023-06-17T00:48:10.245Z,99.90
2023-06-17T00:50:38.702Z,99.90
2023-06-17T00:53:07.171Z,99.90
2023-06-17T00:55:35.820Z,99.90
2023-06-17T00:58:03.306Z,99.90
2023-06-17T01:00:30.272Z,99.90
2023-06-17T01:02:57.790Z,99.90
2023-06-17T01:05:26.118Z,99.90
2023-06-17T01:08:45.291Z,99.90
2023-06-17T01:11:21.225Z,99.90
2023-06-17T01:13:56.990Z,99.90
2023-06-17T01:16:26.940Z,99.90
2023-06-17T01:18:55.113Z,99.90
2023-06-17T01:21:23.274Z,99.90
2023-06-17T01:23:54.410Z,99.90
2023-06-17T01:26:22.766Z,99.90
2023-06-17T01:28:49.772Z,99.90
2023-06-17T01:31:19.384Z,99.90
2023-06-17T01:33:51.974Z,99.90
2023-06-17T01:36:29.454Z,99.90
2023-06-17T01:39:06.427Z,99.90
2023-06-17T01:41:50.190Z,99.90
2023-06-17T01:44:20.005Z,99.90
2023-06-17T01:46:47.304Z,99.90
2023-06-17T01:49:14.355Z,99.90
2023-06-17T01:51:41.357Z,99.90
2023-06-17T01:54:08.296Z,99.90
2023-06-17T01:56:35.556Z,99.90
2023-06-17T01:59:02.863Z,99.90
2023-06-17T02:01:29.762Z,99.90
2023-06-17T02:03:57.388Z,99.90
2023-06-17T02:06:24.781Z,99.90
2023-06-17T02:08:51.902Z,99.90
2023-06-17T02:11:18.817Z,99.90
2023-06-17T02:13:45.812Z,99.90
2023-06-17T02:16:12.785Z,99.90
2023-06-17T02:18:40.565Z,99.90
2023-06-17T02:21:07.549Z,99.90
2023-06-17T02:23:34.462Z,99.90
2023-06-17T02:26:01.403Z,99.90
2023-06-17T02:28:28.453Z,99.90
2023-06-17T02:30:55.710Z,99.90
2023-06-17T02:33:24.089Z,99.90
2023-06-17T02:35:51.097Z,99.90
2023-06-17T02:38:18.548Z,99.90
2023-06-17T02:40:45.561Z,99.90
2023-06-17T02:43:12.500Z,99.90
2023-06-17T02:45:39.464Z,99.90
2023-06-17T02:48:06.578Z,99.90
2023-06-17T02:50:33.522Z,99.90
2023-06-17T02:53:01.488Z,99.90
2023-06-17T02:55:28.649Z,99.90
2023-06-17T02:57:55.580Z,99.90
2023-06-17T03:00:22.923Z,99.90
2023-06-17T03:02:52.106Z,99.90
2023-06-17T03:05:19.577Z,99.90
2023-06-17T03:07:47.754Z,99.90
2023-06-17T03:10:16.386Z,99.90
2023-06-17T03:12:43.262Z,99.90
2023-06-17T03:15:10.686Z,99.90
2023-06-17T03:17:38.277Z,99.90
2023-06-17T03:20:09.617Z,99.90
2023-06-17T03:22:36.707Z,99.90
2023-06-17T03:25:04.608Z,99.90
2023-06-17T03:27:32.441Z,99.90
2023-06-17T03:29:59.486Z,99.90
2023-06-17T03:32:26.377Z,99.90
2023-06-17T03:34:57.878Z,99.90
2023-06-17T03:37:24.962Z,99.90
2023-06-17T03:39:51.921Z,99.90
2023-06-17T03:42:18.878Z,99.90
2023-06-17T03:44:45.804Z,99.90
2023-06-17T03:47:12.781Z,99.90
2023-06-17T03:49:39.735Z,99.90
2023-06-17T03:52:07.724Z,99.90
2023-06-17T03:54:34.720Z,99.90
2023-06-17T03:57:01.652Z,99.90
2023-06-17T03:59:29.494Z,99.90
2023-06-17T04:01:56.384Z,99.90
2023-06-17T04:04:23.508Z,99.90
2023-06-17T04:06:50.554Z,99.90
2023-06-17T04:09:17.793Z,99.90
2023-06-17T04:11:44.737Z,99.90
2023-06-17T04:14:11.731Z,99.90
2023-06-17T04:16:38.762Z,99.90
2023-06-17T04:19:05.727Z,99.90
2023-06-17T04:21:32.692Z,99.90
2023-06-17T04:23:59.608Z,99.90
2023-06-17T04:26:26.838Z,99.90
2023-06-17T04:28:53.883Z,99.90
2023-06-17T04:31:20.831Z,99.90
2023-06-17T04:33:48.479Z,99.90
2023-06-17T04:36:18.473Z,99.90
2023-06-17T04:38:45.524Z,99.90
2023-06-17T04:41:12.585Z,99.90
2023-06-17T04:43:39.578Z,99.90
2023-06-17T04:46:07.017Z,99.90
2023-06-17T04:48:33.922Z,99.90
2023-06-17T04:51:00.921Z,99.90
2023-06-17T04:53:28.021Z,99.90
2023-06-17T04:55:54.967Z,99.90
2023-06-17T04:58:21.978Z,99.90
2023-06-17T05:00:49.013Z,99.90
2023-06-17T05:03:16.026Z,99.90
2023-06-17T05:05:42.989Z,99.90
2023-06-17T05:08:10.020Z,99.90
2023-06-17T05:10:36.972Z,99.90
2023-06-17T05:13:04.003Z,99.90
2023-06-17T05:15:30.978Z,99.90
2023-06-17T05:17:57.949Z,99.90
2023-06-17T05:20:24.988Z,99.90
2023-06-17T05:22:51.958Z,99.90
2023-06-17T05:25:19.098Z,99.90
2023-06-17T05:27:46.024Z,99.90
2023-06-17T05:30:13.192Z,99.90
2023-06-17T05:32:40.101Z,99.90
2023-06-17T05:35:07.891Z,99.90
2023-06-17T05:37:34.835Z,99.90
2023-06-17T05:40:01.797Z,99.90
2023-06-17T05:42:28.684Z,99.90
2023-06-17T05:44:55.611Z,99.60
2023-06-17T05:47:22.600Z,98.80
2023-06-17T05:49:49.594Z,98.20
2023-06-17T05:52:16.525Z,97.70
2023-06-17T05:54:43.426Z,97.40
2023-06-17T05:57:10.418Z,97.40
2023-06-17T05:59:37.323Z,95.30
2023-06-17T06:02:04.897Z,94.50
2023-06-17T06:04:31.925Z,93.20
2023-06-17T06:06:58.883Z,91.40
2023-06-17T06:09:25.785Z,88.50
2023-06-17T06:11:52.688Z,87.70
2023-06-17T06:14:19.705Z,86.60
2023-06-17T06:16:46.854Z,86.60
2023-06-17T06:19:13.832Z,84.80
2023-06-17T06:21:40.770Z,84.10
2023-06-17T06:24:07.922Z,82.40
2023-06-17T06:26:35.023Z,82.60
2023-06-17T06:29:01.906Z,83.30
2023-06-17T06:31:28.926Z,83.60
2023-06-17T06:33:55.915Z,82.10
2023-06-17T06:36:22.833Z,80.30
2023-06-17T06:38:50.041Z,79.40
2023-06-17T06:41:16.963Z,77.60
2023-06-17T06:43:44.011Z,75.80
2023-06-17T06:46:12.337Z,74.30
2023-06-17T06:48:40.527Z,71.00
2023-06-17T06:51:07.544Z,69.70
2023-06-17T06:53:34.667Z,68.60
2023-06-17T06:56:01.586Z,67.40
2023-06-17T06:58:28.773Z,66.80
2023-06-17T07:00:55.834Z,66.90
2023-06-17T07:03:22.833Z,67.80
2023-06-17T07:05:49.813Z,67.80
2023-06-17T07:08:16.752Z,68.00
2023-06-17T07:10:43.801Z,67.90
2023-06-17T07:13:10.931Z,68.30
2023-06-17T07:15:37.954Z,66.70
2023-06-17T07:18:05.206Z,66.20
2023-06-17T07:20:32.264Z,65.40
2023-06-17T07:22:59.211Z,65.40
2023-06-17T07:25:27.515Z,64.80
2023-06-17T07:28:00.930Z,63.70
2023-06-17T07:30:28.879Z,62.90
2023-06-17T07:32:56.816Z,64.20
2023-06-17T07:35:23.741Z,63.10
2023-06-17T07:37:53.241Z,62.50
2023-06-17T07:40:20.915Z,61.40
2023-06-17T07:42:48.066Z,60.80
2023-06-17T07:45:15.949Z,62.00
2023-06-17T07:47:43.142Z,61.10
2023-06-17T07:50:11.354Z,59.70
2023-06-17T07:52:38.761Z,57.00
2023-06-17T07:55:09.556Z,57.90
2023-06-17T07:57:36.809Z,56.10
2023-06-17T08:03:38.917Z,54.80
2023-06-17T08:06:06.150Z,56.40
2023-06-17T08:08:33.114Z,55.20
2023-06-17T08:11:02.107Z,55.60
2023-06-17T08:13:29.051Z,55.70
2023-06-17T08:16:00.022Z,55.90
2023-06-17T08:18:27.179Z,55.30
2023-06-17T08:20:54.184Z,56.40
2023-06-17T08:23:21.183Z,55.50
2023-06-17T08:25:48.104Z,54.50
2023-06-17T08:28:17.561Z,52.70
2023-06-17T08:30:44.507Z,51.90
2023-06-17T08:33:11.725Z,51.30
2023-06-17T08:35:38.817Z,51.00
2023-06-17T08:38:06.100Z,51.70
2023-06-17T08:40:36.415Z,51.60
2023-06-17T08:43:04.644Z,51.40
2023-06-17T08:45:31.966Z,50.20
2023-06-17T08:48:00.667Z,48.30
2023-06-17T08:50:29.529Z,47.80
2023-06-17T08:52:58.972Z,46.40
2023-06-17T08:55:26.389Z,47.70
2023-06-17T08:57:53.344Z,47.80
2023-06-17T09:00:20.930Z,46.10
2023-06-17T09:02:49.690Z,47.20
2023-06-17T09:05:17.565Z,47.80
2023-06-17T09:07:44.775Z,46.70
2023-06-17T09:10:16.558Z,45.90
2023-06-17T09:12:43.467Z,45.80
2023-06-17T09:15:18.702Z,44.30
2023-06-17T09:17:46.894Z,44.80
2023-06-17T09:20:18.488Z,43.20
2023-06-17T09:22:49.320Z,44.50
2023-06-17T09:25:19.115Z,43.60
2023-06-17T09:30:26.478Z,42.70
2023-06-17T09:32:53.866Z,42.70
2023-06-17T09:35:21.057Z,42.60
2023-06-17T09:38:03.309Z,42.40
2023-06-17T09:40:34.658Z,42.70
2023-06-17T09:43:21.028Z,43.50
2023-06-17T09:46:15.650Z,41.90
2023-06-17T09:48:43.951Z,42.80
2023-06-17T09:51:13.562Z,42.20
2023-06-17T09:53:43.153Z,42.50
2023-06-17T09:56:13.429Z,43.60
2023-06-17T09:58:44.651Z,43.20
2023-06-17T10:01:14.495Z,41.90
2023-06-17T10:03:41.596Z,40.60
2023-06-17T10:06:19.387Z,41.50
2023-06-17T10:08:51.932Z,42.70
2023-06-17T10:11:21.560Z,42.00
2023-06-17T10:14:00.146Z,42.00
2023-06-17T10:16:35.123Z,40.80
2023-06-17T10:19:08.769Z,39.70
2023-06-17T10:21:43.079Z,39.60
2023-06-17T10:24:12.592Z,37.80
2023-06-17T10:26:39.985Z,37.10
2023-06-17T10:29:09.057Z,36.70
2023-06-17T10:31:43.701Z,36.80
2023-06-17T10:34:23.630Z,39.20
2023-06-17T10:36:59.190Z,39.50
2023-06-17T10:39:26.192Z,41.40
2023-06-17T10:41:58.478Z,41.70
2023-06-17T10:44:38.490Z,41.80
2023-06-17T10:47:22.780Z,41.80
2023-06-17T10:49:53.581Z,40.70
2023-06-17T10:52:21.205Z,38.70
2023-06-17T10:54:56.643Z,37.50
2023-06-17T10:57:36.581Z,36.40
2023-06-17T11:00:12.829Z,37.50
2023-06-17T11:02:41.362Z,38.80
2023-06-17T11:05:10.902Z,39.60
2023-06-17T11:07:38.040Z,39.50
2023-06-17T11:10:06.345Z,38.60
2023-06-17T11:12:35.704Z,36.80
2023-06-17T11:15:04.923Z,37.90
2023-06-17T11:17:32.071Z,35.80
2023-06-17T11:19:59.100Z,34.60
2023-06-17T11:22:26.471Z,34.30
2023-06-17T11:24:53.519Z,35.60
2023-06-17T11:27:20.699Z,37.10
2023-06-17T11:29:48.622Z,37.60
2023-06-17T11:32:15.859Z,39.10
2023-06-17T11:34:43.207Z,39.00
2023-06-17T11:37:12.469Z,38.20
2023-06-17T11:39:40.104Z,38.20
2023-06-17T11:42:10.043Z,36.50
2023-06-17T11:44:38.302Z,35.00
2023-06-17T11:47:10.257Z,34.60
2023-06-17T11:49:46.515Z,35.30
2023-06-17T11:52:15.078Z,37.40
2023-06-17T11:54:49.712Z,37.60
2023-06-17T11:57:26.142Z,36.70
2023-06-17T12:00:01.491Z,36.60
2023-06-17T12:02:29.298Z,36.00
2023-06-17T12:05:04.088Z,35.10
2023-06-17T12:07:41.381Z,35.80
2023-06-17T12:10:12.321Z,38.20
2023-06-17T12:12:41.139Z,38.70
2023-06-17T12:15:16.551Z,39.00
2023-06-17T12:18:10.701Z,37.90
2023-06-17T12:20:39.318Z,37.20
2023-06-17T12:23:06.585Z,36.00
2023-06-17T12:25:35.360Z,33.00
2023-06-17T12:28:03.043Z,32.80
2023-06-17T12:30:30.973Z,32.70
2023-06-17T12:32:58.329Z,31.80
2023-06-17T12:35:25.824Z,32.00
2023-06-17T12:37:55.660Z,32.30
2023-06-17T12:40:23.097Z,32.00
2023-06-17T12:42:49.982Z,33.10
2023-06-17T12:45:16.925Z,33.50
2023-06-17T12:47:43.911Z,35.50
2023-06-17T12:50:11.291Z,35.00
2023-06-17T12:52:38.286Z,36.40
2023-06-17T12:55:06.406Z,36.80
2023-06-17T12:57:34.692Z,35.90
2023-06-17T13:00:02.067Z,35.40
2023-06-17T13:02:32.224Z,35.20
2023-06-17T13:05:01.159Z,34.40
2023-06-17T13:07:28.510Z,33.00
2023-06-17T13:09:56.950Z,32.10
2023-06-17T13:12:24.080Z,33.60
2023-06-17T13:14:51.016Z,34.90
2023-06-17T13:17:18.133Z,36.50
2023-06-17T13:19:45.507Z,35.00
2023-06-17T13:22:12.475Z,33.90
2023-06-17T13:24:39.690Z,33.80
2023-06-17T13:27:07.690Z,34.40
2023-06-17T13:29:34.778Z,33.30
2023-06-17T13:32:02.238Z,34.30
2023-06-17T13:34:29.280Z,33.40
2023-06-17T13:36:56.460Z,33.10
2023-06-17T13:39:23.500Z,31.10
2023-06-17T13:41:50.562Z,30.80
2023-06-17T13:44:17.563Z,30.80
2023-06-17T13:46:44.653Z,31.10
2023-06-17T13:49:11.670Z,32.40
2023-06-17T13:51:38.578Z,31.70
2023-06-17T13:54:05.902Z,32.90
2023-06-17T13:56:33.311Z,35.10
2023-06-17T13:59:00.211Z,35.40
2023-06-17T14:01:27.242Z,34.70
2023-06-17T14:03:54.247Z,33.00
2023-06-17T14:06:21.859Z,32.40
2023-06-17T14:08:49.261Z,32.30
2023-06-17T14:11:16.475Z,30.80
2023-06-17T14:13:44.484Z,29.80
2023-06-17T14:16:13.245Z,29.90
2023-06-17T14:18:40.199Z,30.40
2023-06-17T14:21:07.944Z,30.70
2023-06-17T14:23:34.850Z,31.40
2023-06-17T14:26:01.916Z,32.90
2023-06-17T14:28:28.824Z,34.40
2023-06-17T14:30:56.060Z,35.40
2023-06-17T14:33:23.016Z,36.80
2023-06-17T14:35:50.966Z,37.40
2023-06-17T14:38:19.329Z,37.80
2023-06-17T14:40:52.164Z,38.30
2023-06-17T14:43:19.172Z,38.30
2023-06-17T14:45:46.102Z,38.70
2023-06-17T14:48:13.506Z,38.60
2023-06-17T14:50:40.903Z,38.00
2023-06-17T14:53:12.334Z,36.00
2023-06-17T14:55:43.342Z,35.10
2023-06-17T14:58:13.278Z,33.70
2023-06-17T15:00:44.140Z,33.40
2023-06-17T15:03:11.697Z,33.50
2023-06-17T15:05:39.485Z,33.50
2023-06-17T15:08:06.789Z,33.70
2023-06-17T15:10:33.862Z,33.10
2023-06-17T15:13:04.277Z,32.70
2023-06-17T15:15:31.167Z,33.80
2023-06-17T15:17:59.353Z,36.10
2023-06-17T15:20:26.678Z,37.30
2023-06-17T15:22:53.974Z,37.40
2023-06-17T15:25:20.995Z,37.40
2023-06-17T15:27:47.977Z,37.90
2023-06-17T15:30:15.219Z,37.20
2023-06-17T15:32:42.386Z,37.00
2023-06-17T15:35:10.643Z,37.10
2023-06-17T15:37:37.784Z,37.40
2023-06-17T15:40:07.517Z,37.80
2023-06-17T15:42:34.508Z,37.90
2023-06-17T15:45:01.418Z,37.00
2023-06-17T15:47:28.409Z,35.30
2023-06-17T15:49:55.646Z,34.80
2023-06-17T15:52:25.147Z,34.50
2023-06-17T15:54:58.912Z,35.30
2023-06-17T15:57:25.986Z,35.00
2023-06-17T15:59:53.735Z,34.90
2023-06-17T16:02:21.384Z,35.40
2023-06-17T16:04:54.506Z,36.20
2023-06-17T16:07:21.667Z,36.00
2023-06-17T16:09:51.324Z,35.90
2023-06-17T16:12:18.852Z,35.80
2023-06-17T16:14:47.300Z,35.40
2023-06-17T16:17:14.674Z,35.80
2023-06-17T16:19:41.798Z,35.90
2023-06-17T16:22:11.625Z,35.80
2023-06-17T16:24:42.287Z,35.60
2023-06-17T16:27:12.011Z,35.20
2023-06-17T16:29:40.049Z,34.60
2023-06-17T16:32:07.950Z,34.40
2023-06-17T16:34:37.111Z,34.70
2023-06-17T16:37:04.546Z,35.10
2023-06-17T16:39:31.558Z,35.20
2023-06-17T16:41:58.458Z,35.20
2023-06-17T16:44:25.825Z,35.70
2023-06-17T16:46:53.661Z,35.50
2023-06-17T16:49:20.674Z,35.10
2023-06-17T16:51:47.923Z,35.00
2023-06-17T16:54:14.895Z,34.90
2023-06-17T16:56:41.955Z,34.40
2023-06-17T16:59:09.040Z,34.20
2023-06-17T17:01:36.106Z,34.50
2023-06-17T17:04:12.614Z,34.50
2023-06-17T17:06:43.622Z,34.60
2023-06-17T17:09:10.695Z,34.10
2023-06-17T17:11:37.654Z,34.70
2023-06-17T17:14:05.381Z,35.10
2023-06-17T17:16:32.428Z,35.40
2023-06-17T17:18:59.536Z,35.60
2023-06-17T17:21:27.245Z,34.80
2023-06-17T17:23:54.301Z,35.00
2023-06-17T17:26:21.316Z,34.90
2023-06-17T17:28:48.284Z,34.10
2023-06-17T17:31:15.385Z,34.70
2023-06-17T17:33:44.231Z,34.60
2023-06-17T17:36:15.318Z,34.60
2023-06-17T17:38:43.370Z,34.80
2023-06-17T17:41:11.973Z,35.50
2023-06-17T17:43:39.258Z,35.10
2023-06-17T17:46:08.563Z,35.10
2023-06-17T17:48:35.838Z,35.40
2023-06-17T17:51:02.825Z,35.30
2023-06-17T17:53:30.262Z,35.70
2023-06-17T17:55:57.271Z,35.90
2023-06-17T17:58:24.264Z,36.20
2023-06-17T18:00:51.215Z,36.70
2023-06-17T18:03:18.334Z,37.30
2023-06-17T18:05:45.312Z,37.40
2023-06-17T18:08:12.376Z,38.20
2023-06-17T18:10:39.379Z,38.30
2023-06-17T18:13:06.386Z,38.50
2023-06-17T18:15:33.315Z,38.70
2023-06-17T18:18:00.375Z,39.30
2023-06-17T18:20:27.394Z,39.80
2023-06-17T18:22:54.369Z,39.80
2023-06-17T18:25:21.284Z,40.10
2023-06-17T18:27:48.204Z,40.30
2023-06-17T18:30:15.308Z,40.50
2023-06-17T18:32:42.385Z,40.50
2023-06-17T18:35:09.495Z,40.60
2023-06-17T18:37:36.434Z,40.80
2023-06-17T18:40:03.867Z,41.40
2023-06-17T18:42:30.759Z,41.40
2023-06-17T18:44:57.754Z,41.80
2023-06-17T18:47:24.718Z,41.90
2023-06-17T18:49:51.677Z,42.20
2023-06-17T18:52:19.210Z,42.60
2023-06-17T18:54:46.170Z,42.90
2023-06-17T18:57:14.555Z,43.40
2023-06-17T18:59:41.560Z,43.90
2023-06-17T19:02:08.494Z,43.80
2023-06-17T19:04:35.633Z,44.20
2023-06-17T19:07:04.580Z,45.10
2023-06-17T19:09:31.823Z,46.10
2023-06-17T19:12:00.767Z,47.10
2023-06-17T19:14:28.180Z,47.70
2023-06-17T19:16:55.688Z,48.20
2023-06-17T19:19:22.696Z,48.70
2023-06-17T19:21:49.808Z,49.70
2023-06-17T19:24:19.206Z,50.20
2023-06-17T19:26:46.279Z,50.20
2023-06-17T19:29:13.236Z,50.80
2023-06-17T19:31:40.192Z,51.20
2023-06-17T19:34:07.104Z,51.50
2023-06-17T19:36:34.151Z,51.80
2023-06-17T19:39:01.021Z,52.00
2023-06-17T19:41:28.870Z,52.80
2023-06-17T19:43:57.540Z,54.30
2023-06-17T19:46:25.101Z,54.40
2023-06-17T19:48:52.126Z,54.70
2023-06-17T19:51:19.080Z,54.90
2023-06-17T19:53:46.077Z,55.80
2023-06-17T19:56:13.149Z,56.50
2023-06-17T19:58:40.083Z,56.90
2023-06-17T20:01:07.209Z,57.10
2023-06-17T20:03:34.702Z,57.20
2023-06-17T20:06:01.970Z,57.20
2023-06-17T20:08:30.566Z,57.60
2023-06-17T20:10:57.529Z,57.70
2023-06-17T20:13:24.435Z,58.00
2023-06-17T20:15:52.419Z,58.00
2023-06-17T20:18:19.470Z,58.40
2023-06-17T20:20:46.492Z,58.90
2023-06-17T20:23:13.376Z,58.70
2023-06-17T20:25:40.556Z,58.70
2023-06-17T20:28:07.526Z,58.90
2023-06-17T20:30:34.496Z,59.50
2023-06-17T20:33:01.442Z,59.50
2023-06-17T20:35:28.367Z,59.60
2023-06-17T20:37:55.834Z,59.80
2023-06-17T20:40:23.074Z,60.90
2023-06-17T20:42:50.317Z,61.80
2023-06-17T20:45:18.231Z,61.90
2023-06-17T20:47:45.389Z,62.20
2023-06-17T20:50:12.735Z,62.70
2023-06-17T20:52:39.645Z,62.90
2023-06-17T20:55:07.410Z,63.40
2023-06-17T20:57:34.343Z,64.20
2023-06-17T21:00:01.506Z,64.40
2023-06-17T21:02:28.516Z,64.30
2023-06-17T21:04:56.820Z,64.70
2023-06-17T21:07:23.876Z,64.90
2023-06-17T21:09:51.416Z,64.80
2023-06-17T21:12:21.657Z,65.30
2023-06-17T21:14:48.884Z,65.80
2023-06-17T21:17:16.869Z,66.40
2023-06-17T21:19:43.954Z,66.70
2023-06-17T21:22:11.149Z,67.10
2023-06-17T21:24:38.512Z,66.90
2023-06-17T21:27:10.266Z,67.80
2023-06-17T21:29:38.742Z,68.20
2023-06-17T21:32:10.089Z,68.80
2023-06-17T21:34:38.407Z,69.20
2023-06-17T21:37:05.895Z,69.70
2023-06-17T21:39:32.847Z,70.00
2023-06-17T21:41:59.915Z,69.70
2023-06-17T21:44:26.849Z,70.10
2023-06-17T21:46:53.824Z,70.40
2023-06-17T21:49:21.022Z,69.90
2023-06-17T21:51:48.025Z,69.30
2023-06-17T21:54:14.989Z,69.30
2023-06-17T21:56:41.882Z,69.40
2023-06-17T21:59:08.810Z,69.70
2023-06-17T22:01:35.980Z,69.50
2023-06-17T22:04:03.166Z,69.50
2023-06-17T22:06:31.217Z,69.60
2023-06-17T22:08:58.266Z,70.00
2023-06-17T22:11:25.186Z,69.10
2023-06-17T22:13:52.159Z,67.90
2023-06-17T22:16:19.323Z,67.60
2023-06-17T22:18:46.461Z,67.70
2023-06-17T22:21:13.550Z,67.30
2023-06-17T22:23:40.593Z,67.40
2023-06-17T22:26:07.809Z,68.20
2023-06-17T22:28:35.051Z,68.50
2023-06-17T22:31:01.998Z,68.80
2023-06-17T22:33:29.361Z,69.20
2023-06-17T22:35:56.345Z,69.80
2023-06-17T22:38:23.286Z,69.80
2023-06-17T22:40:50.318Z,70.40
2023-06-17T22:43:20.167Z,69.90
2023-06-17T22:45:47.618Z,69.70
2023-06-17T22:48:14.509Z,69.60
2023-06-17T22:50:41.583Z,69.40
2023-06-17T22:53:08.640Z,70.40
2023-06-17T22:55:37.419Z,71.80
2023-06-17T22:58:04.710Z,72.10
2023-06-17T23:00:31.682Z,71.10
2023-06-17T23:02:58.728Z,70.80
2023-06-17T23:05:25.787Z,70.70
2023-06-17T23:07:52.708Z,70.60
2023-06-17T23:10:20.176Z,70.20
2023-06-17T23:12:47.348Z,70.20
2023-06-17T23:15:14.317Z,70.30
2023-06-17T23:17:41.329Z,70.70
2023-06-17T23:20:09.043Z,70.70
2023-06-17T23:22:36.831Z,71.40
2023-06-17T23:25:07.910Z,71.80
2023-06-17T23:27:35.645Z,71.90
2023-06-17T23:30:02.882Z,72.80
2023-06-17T23:32:29.882Z,73.30
2023-06-17T23:34:57.292Z,74.00
2023-06-17T23:37:26.249Z,73.90
2023-06-17T23:39:53.882Z,74.00
2023-06-17T23:42:20.843Z,74.40
2023-06-17T23:44:49.188Z,75.40
2023-06-17T23:47:19.780Z,76.00
2023-06-17T23:49:47.536Z,76.20
2023-06-17T23:52:14.783Z,76.40
2023-06-17T23:54:42.062Z,77.00
2023-06-17T23:57:09.059Z,77.30
2023-06-17T23:59:36.311Z,77.80
